Terminal Aerodrome Forecast
Issued by NWS

Home | Current Version | Previous Version | Text Only | Print | Product List | Glossary Off
Versions: 1 2 3 4 5 6 7 8 9 10 11 12 13 14 15

342
FTUS43 KMPX 281821 AAA
TAFAXN
TAF AMD
KAXN 281821Z 2818/2918 30017G27KT P6SM VCTS SCT040CB BKN080
      TEMPO 2818/2821 -SHRA BKN040
     FM282200 30016G26KT P6SM VCSH BKN050
     FM290100 30009KT P6SM VCSH BKN040
     FM290700 30012G18KT P6SM OVC050
     FM290900 30011KT P6SM BKN025
     FM291300 30013G21KT P6SM OVC015=

USA.gov is the U.S. government's official web portal to all federal, state and local government web resources and services.